Time;durP1;ratioP1;P1;durP2;ratioP2;P2;SDS_P1;SDS_P2;PMS_P1;PMS_P2;Temp;Humidity;BMP_temperature;BMP_pressure;BME280_temperature;BME280_humidity;BME280_pressure;Samples;Min_cycle;Max_cycle;Signal;HPM_P1;HPM_P2
2022/07/19 00:03:44;;;;;;;1.90;0.70;;;;;;;21.99;48.00;98773.16;15283298;19;20007;-56
2022/07/19 00:08:52;;;;;;;2.17;0.93;;;;;;;21.88;49.33;98763.75;15275566;19;20013;-58
2022/07/19 00:13:57;;;;;;;1.63;0.80;;;;;;;21.76;49.39;98760.09;15283039;19;20014;-59
2022/07/19 00:19:02;;;;;;;4.88;0.98;;;;;;;21.60;50.54;98773.31;15282481;19;20030;-58
2022/07/19 00:24:10;;;;;;;1.65;0.93;;;;;;;21.44;51.61;98771.09;15283943;19;20115;-58
2022/07/19 00:29:16;;;;;;;1.63;0.93;;;;;;;21.34;51.95;98768.88;15275794;19;20018;-58
2022/07/19 00:34:21;;;;;;;2.65;1.00;;;;;;;21.22;52.56;98769.59;15284806;19;20516;-60
2022/07/19 00:39:29;;;;;;;3.45;0.90;;;;;;;21.10;53.30;98765.91;15280258;19;20475;-56
2022/07/19 00:44:34;;;;;;;1.55;0.88;;;;;;;20.96;53.61;98764.31;15274096;19;20011;-60
2022/07/19 00:49:39;;;;;;;2.08;0.68;;;;;;;20.82;54.59;98769.84;15278843;19;20358;-56
2022/07/19 00:54:48;;;;;;;2.33;0.80;;;;;;;20.75;55.05;98769.91;15281107;19;20014;-58
2022/07/19 00:59:55;;;;;;;3.08;0.80;;;;;;;20.71;55.08;98765.03;15271184;19;20499;-57
2022/07/19 01:05:00;;;;;;;1.40;0.80;;;;;;;20.61;55.71;98770.97;15281531;19;20027;-59
2022/07/19 01:10:11;;;;;;;1.52;0.80;;;;;;;20.51;56.54;98760.53;15277089;19;20356;-57
2022/07/19 01:15:18;;;;;;;1.07;0.77;;;;;;;20.34;57.99;98768.38;15274906;19;20038;-58
2022/07/19 01:20:26;;;;;;;2.55;1.00;;;;;;;20.32;57.69;98774.06;15275090;19;20002;-58
2022/07/19 01:25:39;;;;;;;1.65;0.90;;;;;;;20.27;58.90;98779.34;15279724;19;20463;-74
2022/07/19 01:30:44;;;;;;;1.42;0.90;;;;;;;20.17;59.38;98770.72;15274698;19;20062;-75
2022/07/19 01:35:49;;;;;;;2.47;1.20;;;;;;;20.09;60.91;98765.50;15280049;19;20245;-77
2022/07/19 01:40:57;;;;;;;2.95;0.90;;;;;;;19.95;62.51;98770.19;15282655;19;20019;-76
2022/07/19 01:46:02;;;;;;;1.67;0.90;;;;;;;19.91;61.83;98772.50;15276519;19;20010;-73
2022/07/19 01:51:07;;;;;;;1.08;0.80;;;;;;;19.83;63.50;98773.53;15276492;19;20011;-75
2022/07/19 01:56:15;;;;;;;2.92;0.90;;;;;;;19.70;65.31;98766.19;15282544;19;20014;-74
2022/07/19 02:01:20;;;;;;;1.55;1.00;;;;;;;19.67;64.84;98760.31;15280785;19;20014;-78
2022/07/19 02:06:25;;;;;;;2.97;1.10;;;;;;;19.62;65.27;98760.13;15281524;19;20467;-74
2022/07/19 02:11:40;;;;;;;1.90;0.90;;;;;;;19.57;65.44;98752.56;15291978;19;20014;-77
2022/07/19 02:16:45;;;;;;;1.42;0.80;;;;;;;19.47;66.25;98752.97;15297894;19;20092;-74
2022/07/19 02:21:50;;;;;;;1.80;0.93;;;;;;;19.40;66.63;98755.69;15289984;19;20042;-74
2022/07/19 02:26:58;;;;;;;3.30;1.00;;;;;;;19.33;67.20;98754.03;15296602;19;20081;-75
2022/07/19 02:32:03;;;;;;;3.63;0.90;;;;;;;19.25;68.81;98755.06;15288219;19;20010;-75
2022/07/19 02:37:08;;;;;;;3.08;1.10;;;;;;;19.20;68.59;98750.22;15293404;19;20364;-74
2022/07/19 02:42:17;;;;;;;1.85;0.80;;;;;;;19.11;70.90;98751.50;15293886;19;20018;-76
2022/07/19 02:47:23;;;;;;;3.75;1.10;;;;;;;19.06;70.40;98754.84;15297069;19;20015;-76
2022/07/19 02:52:32;;;;;;;2.03;0.95;;;;;;;19.03;70.85;98758.00;15287374;19;20027;-75
2022/07/19 02:57:40;;;;;;;2.10;1.00;;;;;;;18.97;72.97;98758.84;15297672;19;20023;-73
2022/07/19 03:02:45;;;;;;;1.48;1.00;;;;;;;18.94;72.52;98761.97;15297383;19;20010;-76
2022/07/19 03:07:50;;;;;;;1.90;1.10;;;;;;;18.85;76.79;98760.47;15290296;19;20006;-78
2022/07/19 03:12:58;;;;;;;2.58;1.10;;;;;;;18.79;77.05;98754.78;15292009;19;20042;-76
2022/07/19 03:18:05;;;;;;;2.42;0.90;;;;;;;18.69;79.11;98770.69;15294440;19;20018;-78
2022/07/19 03:23:10;;;;;;;1.65;1.02;;;;;;;18.71;77.11;98762.28;15287185;19;20027;-75
2022/07/19 03:28:18;;;;;;;2.28;0.98;;;;;;;18.68;77.96;98758.09;15301215;19;20394;-76
2022/07/19 03:33:24;;;;;;;3.50;1.15;;;;;;;18.65;79.11;98758.50;15296881;19;20475;-77
2022/07/19 03:38:29;;;;;;;3.00;1.15;;;;;;;18.66;79.31;98762.09;15309247;19;20021;-76
2022/07/19 03:43:39;;;;;;;2.90;1.10;;;;;;;18.60;80.00;98761.03;15296596;19;20745;-78
2022/07/19 03:48:44;;;;;;;2.30;1.15;;;;;;;18.60;79.85;98766.47;15306830;19;20011;-78
2022/07/19 03:53:50;;;;;;;1.65;1.00;;;;;;;18.62;80.37;98767.94;15291959;19;20047;-77
2022/07/19 03:58:58;;;;;;;1.75;1.00;;;;;;;18.60;81.27;98767.31;15296388;19;20018;-76
2022/07/19 04:04:04;;;;;;;2.80;1.00;;;;;;;18.56;83.06;98767.94;15294525;19;20049;-74
2022/07/19 04:09:09;;;;;;;1.00;1.00;;;;;;;18.51;84.31;98770.44;15293022;19;20029;-74
2022/07/19 04:14:22;;;;;;;1.27;0.93;;;;;;;18.50;84.99;98771.50;15289463;19;20022;-74
2022/07/19 04:19:33;;;;;;;1.77;1.00;;;;;;;18.48;87.53;98780.72;15338995;19;20020;-76
2022/07/19 04:24:41;;;;;;;1.90;1.10;;;;;;;18.48;86.08;98774.41;15314996;19;20503;-76
2022/07/19 04:29:50;;;;;;;1.65;1.00;;;;;;;18.48;87.51;98775.25;15286357;19;20026;-75
2022/07/19 04:34:59;;;;;;;4.60;0.95;;;;;;;18.51;87.05;98765.81;15286401;19;20550;-73
2022/07/19 04:40:08;;;;;;;3.00;1.08;;;;;;;18.55;87.71;98768.97;15291516;19;20021;-74
2022/07/19 04:45:17;;;;;;;1.00;0.90;;;;;;;18.62;86.78;98769.84;15279974;19;20615;-63
2022/07/19 04:50:23;;;;;;;1.80;1.10;;;;;;;18.66;87.91;98770.28;15284298;19;20011;-58
2022/07/19 04:55:29;;;;;;;2.10;1.00;;;;;;;18.72;87.90;98774.91;15281220;19;20024;-62
2022/07/19 05:00:37;;;;;;;3.45;1.10;;;;;;;18.82;88.92;98774.50;15274311;19;20475;-63
2022/07/19 05:05:42;;;;;;;1.05;0.95;;;;;;;18.90;87.67;98777.91;15281069;19;20018;-62
2022/07/19 05:10:47;;;;;;;3.00;0.90;;;;;;;19.03;86.38;98774.38;15280460;19;20011;-63
2022/07/19 05:15:55;;;;;;;2.88;1.00;;;;;;;19.13;85.59;98782.16;15279384;19;20011;-63
2022/07/19 05:21:00;;;;;;;5.03;1.08;;;;;;;19.28;84.65;98781.97;15276019;19;20460;-63
2022/07/19 05:26:05;;;;;;;1.60;0.98;;;;;;;19.39;82.19;98784.06;15278735;19;20003;-63
2022/07/19 05:31:13;;;;;;;2.85;1.10;;;;;;;19.55;81.55;98784.72;15274689;19;20022;-62
2022/07/19 05:36:18;;;;;;;1.90;0.90;;;;;;;19.69;79.71;98786.41;15279942;19;20046;-64
2022/07/19 05:41:24;;;;;;;2.38;1.10;;;;;;;19.86;80.01;98788.69;15281174;19;20022;-65
2022/07/19 05:46:32;;;;;;;1.38;1.00;;;;;;;20.01;77.45;98783.84;15275138;19;20365;-67
2022/07/19 05:51:43;;;;;;;3.00;1.17;;;;;;;20.17;76.24;98774.31;15275948;19;20042;-64
2022/07/19 05:56:49;;;;;;;4.18;1.00;;;;;;;20.33;74.19;98778.47;15278112;19;20951;-65
2022/07/19 06:01:56;;;;;;;2.72;1.00;;;;;;;20.50;73.84;98786.22;15278182;19;20018;-60
2022/07/19 06:07:02;;;;;;;1.73;0.80;;;;;;;20.68;72.52;98781.91;15276768;19;20019;-58
2022/07/19 06:12:07;;;;;;;2.78;1.00;;;;;;;20.90;70.96;98786.03;15280501;19;20034;-61
2022/07/19 06:17:14;;;;;;;3.28;1.10;;;;;;;21.08;68.04;98789.94;15281999;19;20021;-66
2022/07/19 06:22:19;;;;;;;1.85;0.85;;;;;;;21.34;66.10;98786.16;15282509;19;20018;-64
2022/07/19 06:27:25;;;;;;;2.97;0.90;;;;;;;21.54;64.53;98786.00;15282242;19;20006;-62
2022/07/19 06:32:33;;;;;;;1.42;0.90;;;;;;;21.74;63.17;98790.50;15280147;19;20011;-67
2022/07/19 06:37:38;;;;;;;2.45;1.10;;;;;;;21.92;62.94;98783.38;15275849;19;20018;-64
2022/07/19 06:42:43;;;;;;;0.70;0.70;;;;;;;22.15;61.84;98786.28;15278483;19;20019;-63
2022/07/19 06:47:51;;;;;;;3.42;0.82;;;;;;;22.37;61.50;98782.22;15277629;19;20029;-63
2022/07/19 06:52:56;;;;;;;1.27;0.80;;;;;;;22.57;62.22;98776.53;15277166;19;20018;-63
2022/07/19 06:58:01;;;;;;;1.38;0.90;;;;;;;22.84;61.27;98776.16;15296132;19;20006;-64
2022/07/19 07:03:11;;;;;;;3.50;0.80;;;;;;;23.18;58.91;98771.84;15292962;19;20826;-64
2022/07/19 07:08:17;;;;;;;3.33;0.82;;;;;;;23.39;58.74;98777.91;15289155;19;20018;-64
2022/07/19 07:13:21;;;;;;;1.83;0.70;;;;;;;23.64;56.56;98780.44;15288377;19;20018;-63
2022/07/19 07:18:29;;;;;;;2.22;0.80;;;;;;;23.92;55.71;98783.56;15293039;19;20022;-64
2022/07/19 07:23:35;;;;;;;2.95;0.70;;;;;;;24.22;55.02;98782.63;15288238;19;20724;-65
2022/07/19 07:28:40;;;;;;;1.98;0.75;;;;;;;24.42;54.36;98784.94;15285203;19;20025;-65
2022/07/19 07:33:48;;;;;;;1.23;0.80;;;;;;;24.71;53.88;98779.50;15290166;19;20014;-65
2022/07/19 07:38:53;;;;;;;1.35;0.80;;;;;;;24.95;53.03;98782.16;15285348;19;20043;-62
2022/07/19 07:43:58;;;;;;;3.75;0.90;;;;;;;25.21;51.67;98776.03;15287292;19;20011;-62
2022/07/19 07:49:06;;;;;;;4.88;0.80;;;;;;;25.31;51.83;98769.84;15286493;19;20015;-63
2022/07/19 07:54:12;;;;;;;3.63;0.80;;;;;;;25.46;52.95;98766.53;15286425;19;20006;-64
2022/07/19 07:59:17;;;;;;;1.08;0.85;;;;;;;25.77;51.99;98764.28;15287486;19;20090;-64
2022/07/19 08:04:25;;;;;;;2.05;0.80;;;;;;;26.02;50.56;98764.91;15280574;19;20038;-64
2022/07/19 08:09:30;;;;;;;2.35;0.93;;;;;;;26.28;50.32;98769.72;15287019;19;20602;-65
2022/07/19 08:14:35;;;;;;;6.38;0.90;;;;;;;26.49;49.29;98761.69;15281927;19;20431;-62
2022/07/19 08:19:44;;;;;;;6.50;0.93;;;;;;;26.77;49.63;98752.31;15286835;19;20107;-65
2022/07/19 08:24:49;;;;;;;6.05;1.08;;;;;;;27.11;48.25;98756.03;15286335;19;20070;-65
2022/07/19 08:29:54;;;;;;;12.27;1.20;;;;;;;27.32;48.09;98752.34;15286315;19;20502;-65
2022/07/19 08:35:01;;;;;;;12.02;1.10;;;;;;;27.68;45.27;98749.91;15277709;19;20035;-64
2022/07/19 08:40:08;;;;;;;4.45;0.90;;;;;;;27.95;43.10;98742.56;15285883;19;20010;-61
2022/07/19 08:45:13;;;;;;;3.92;0.70;;;;;;;28.28;40.23;98738.59;15281099;19;20014;-65
2022/07/19 08:50:21;;;;;;;3.97;0.70;;;;;;;28.63;39.50;98744.56;15288482;19;20018;-64
2022/07/19 08:55:27;;;;;;;6.25;0.75;;;;;;;29.05;39.23;98746.34;15276597;19;20039;-65
2022/07/19 09:00:34;;;;;;;2.47;0.80;;;;;;;29.28;36.47;98744.16;15289123;19;20355;-66
2022/07/19 09:05:42;;;;;;;1.90;0.70;;;;;;;29.55;34.43;98740.28;15280456;19;20389;-66
2022/07/19 09:11:14;;;;;;;3.67;0.70;;;;;;;29.63;35.63;98730.56;15287407;19;20528;-66
2022/07/19 09:16:16;;;;;;;1.38;0.70;;;;;;;29.92;34.95;98736.34;15281124;19;20018;-64
2022/07/19 09:21:23;;;;;;;4.38;0.80;;;;;;;30.00;35.29;98729.41;15284594;19;20014;-63
2022/07/19 09:26:28;;;;;;;2.20;0.80;;;;;;;30.19;35.20;98731.56;15274258;19;20341;-61
2022/07/19 09:31:34;;;;;;;1.52;0.60;;;;;;;30.32;34.12;98730.94;15286639;19;20018;-63
2022/07/19 09:36:42;;;;;;;3.50;0.80;;;;;;;30.48;33.73;98723.38;15274703;19;20042;-66
2022/07/19 09:41:58;;;;;;;1.50;0.70;;;;;;;30.51;33.35;98717.25;15286435;19;20014;-62
2022/07/19 09:47:03;;;;;;;1.88;0.65;;;;;;;30.56;32.83;98716.41;15279865;19;20483;-64
2022/07/19 09:52:22;;;;;;;5.63;0.85;;;;;;;30.75;32.80;98717.41;15280353;19;20014;-64
2022/07/19 09:57:29;;;;;;;4.22;0.77;;;;;;;30.92;34.12;98718.16;15277366;19;20043;-61
2022/07/19 10:02:40;;;;;;;5.10;0.70;;;;;;;31.01;33.18;98710.84;15283422;19;20023;-63
2022/07/19 10:07:48;;;;;;;7.75;0.88;;;;;;;31.16;32.99;98713.56;15268778;19;20034;-62
2022/07/19 10:12:54;;;;;;;1.88;0.60;;;;;;;31.33;32.49;98713.13;15271304;19;20018;-62
2022/07/19 10:18:15;;;;;;;1.77;0.73;;;;;;;31.54;32.19;98709.31;15269119;19;20023;-62
2022/07/19 10:23:31;;;;;;;1.98;0.70;;;;;;;31.64;32.09;98703.63;15277492;19;20039;-61
2022/07/19 10:28:38;;;;;;;2.70;0.60;;;;;;;31.71;32.13;98698.59;15279597;19;20031;-63
2022/07/19 10:34:05;;;;;;;2.22;0.90;;;;;;;31.81;31.40;98697.66;15287381;19;20304;-63
2022/07/19 10:39:29;;;;;;;2.85;0.60;;;;;;;31.88;29.63;98697.28;15293709;19;20010;-62
2022/07/19 10:45:13;;;;;;;2.50;0.73;;;;;;;32.00;29.76;98699.66;15289772;19;20018;-62
2022/07/19 10:50:20;;;;;;;0.88;0.57;;;;;;;31.97;30.48;98696.34;15295415;19;20014;-62
2022/07/19 10:55:31;;;;;;;1.45;0.60;;;;;;;32.18;28.54;98695.28;15285859;19;20014;-62
2022/07/19 11:00:45;;;;;;;1.15;0.50;;;;;;;32.25;29.37;98688.25;15295071;19;20014;-62
2022/07/19 11:05:52;;;;;;;1.55;0.60;;;;;;;32.66;30.09;98688.78;15286243;19;20015;-62
2022/07/19 11:11:08;;;;;;;2.00;0.70;;;;;;;32.62;28.37;98677.41;15294211;19;20006;-62
2022/07/19 11:16:13;;;;;;;3.67;0.70;;;;;;;32.72;28.55;98682.84;15290201;19;20038;-63
2022/07/19 11:21:18;;;;;;;1.77;0.70;;;;;;;32.87;28.19;98673.44;15294400;19;20099;-62
2022/07/19 11:26:27;;;;;;;2.90;0.50;;;;;;;33.01;28.21;98661.50;15280682;19;20152;-63
2022/07/19 11:31:32;;;;;;;3.90;0.60;;;;;;;33.10;27.54;98656.06;15295234;19;20483;-62
2022/07/19 11:36:37;;;;;;;4.10;0.90;;;;;;;32.98;26.46;98662.13;15283084;19;20017;-63
2022/07/19 11:41:47;;;;;;;3.55;0.65;;;;;;;33.16;26.74;98666.00;15292696;19;20043;-63
2022/07/19 11:46:59;;;;;;;2.57;0.50;;;;;;;33.31;26.63;98651.75;15295552;19;20050;-62
2022/07/19 11:52:04;;;;;;;5.60;0.60;;;;;;;33.64;27.31;98639.75;15291515;19;20299;-62
2022/07/19 11:57:29;;;;;;;2.90;0.60;;;;;;;33.70;25.59;98641.28;15277530;19;20046;-62
2022/07/19 12:02:52;;;;;;;1.88;0.70;;;;;;;33.98;26.99;98632.94;15292385;19;20471;-62
2022/07/19 12:08:02;;;;;;;1.73;0.75;;;;;;;34.34;26.26;98634.16;15284693;19;20086;-63
2022/07/19 12:13:10;;;;;;;;;;;;;;;34.50;24.61;98632.66;15292527;19;20010;-62
2022/07/19 12:18:17;;;;;;;4.38;0.80;;;;;;;34.68;25.95;98621.63;15284264;19;19951;-62
2022/07/19 12:23:23;;;;;;;4.60;0.80;;;;;;;34.81;25.61;98612.31;15285296;19;20365;-62
2022/07/19 12:28:30;;;;;;;2.03;0.63;;;;;;;34.93;25.59;98611.78;15287773;19;20015;-60
2022/07/19 12:33:38;;;;;;;2.72;0.68;;;;;;;34.93;24.98;98606.19;15281880;19;20872;-62
2022/07/19 12:38:44;;;;;;;1.95;0.80;;;;;;;35.00;24.45;98600.16;15284903;19;20539;-62
2022/07/19 12:43:52;;;;;;;1.85;0.70;;;;;;;35.25;24.55;98595.03;15286030;19;20030;-61
2022/07/19 12:49:02;;;;;;;1.52;0.70;;;;;;;35.37;24.57;98597.22;15286512;19;20018;-63
2022/07/19 12:54:07;;;;;;;1.30;0.70;;;;;;;35.63;23.90;98592.59;15290378;19;20572;-63
2022/07/19 13:04:32;;;;;;;4.75;0.73;;;;;;;35.32;23.76;98581.38;15279842;19;20038;-62
2022/07/19 13:09:39;;;;;;;1.88;0.75;;;;;;;35.70;23.78;98582.88;15282764;19;20020;-63
2022/07/19 13:14:46;;;;;;;4.78;0.70;;;;;;;35.96;24.24;98582.97;15281531;19;20039;-61
2022/07/19 13:19:51;;;;;;;1.63;0.70;;;;;;;36.45;23.66;98571.66;15282295;19;20014;-61
2022/07/19 13:24:56;;;;;;;1.45;0.60;;;;;;;37.04;24.38;98573.09;15274199;19;20557;-63
2022/07/19 13:30:24;;;;;;;3.35;0.80;;;;;;;37.32;23.41;98575.50;15287568;19;20060;-63
2022/07/19 13:35:30;;;;;;;3.72;0.70;;;;;;;37.54;23.06;98548.31;15273945;19;20038;-63
2022/07/19 13:40:35;;;;;;;2.15;0.70;;;;;;;37.93;23.21;98549.09;15282114;19;20470;-63
2022/07/19 13:45:43;;;;;;;2.92;0.60;;;;;;;38.32;22.96;98546.19;15282610;19;20027;-63
2022/07/19 13:50:48;;;;;;;2.33;0.63;;;;;;;38.67;22.33;98538.25;15283783;19;20082;-62
2022/07/19 13:55:53;;;;;;;2.00;0.80;;;;;;;38.90;22.78;98528.63;15279889;19;20018;-64
2022/07/19 14:01:01;;;;;;;0.98;0.50;;;;;;;39.01;21.80;98529.81;15282425;19;20033;-63
2022/07/19 14:06:26;;;;;;;0.98;0.50;;;;;;;38.97;21.77;98526.03;15271575;19;20013;-64
2022/07/19 14:11:34;;;;;;;1.48;0.80;;;;;;;38.49;21.86;98514.28;15279951;19;20508;-64
2022/07/19 14:16:45;;;;;;;3.42;0.55;;;;;;;39.20;22.15;98512.34;15278878;19;20539;-63
2022/07/19 14:21:51;;;;;;;1.38;0.70;;;;;;;39.26;22.08;98505.31;15281585;19;20047;-64
2022/07/19 14:26:56;;;;;;;3.28;0.60;;;;;;;39.17;22.35;98501.78;15279744;19;20014;-63
2022/07/19 14:32:04;;;;;;;4.88;0.68;;;;;;;39.60;21.83;98491.13;15283992;19;20018;-63
2022/07/19 14:37:10;;;;;;;3.10;0.55;;;;;;;40.12;22.13;98485.84;15269233;19;20050;-62
2022/07/19 14:42:15;;;;;;;2.50;0.77;;;;;;;40.00;21.51;98493.16;15274798;19;20025;-64
2022/07/19 14:47:23;;;;;;;1.55;0.50;;;;;;;40.29;21.49;98490.41;15280984;19;20019;-63
2022/07/19 14:52:29;;;;;;;1.80;0.60;;;;;;;40.36;21.12;98493.44;15281279;19;20011;-64
2022/07/19 14:57:34;;;;;;;6.28;0.70;;;;;;;40.62;21.09;98476.03;15268817;19;20424;-63
2022/07/19 15:02:42;;;;;;;4.25;0.65;;;;;;;41.15;21.04;98486.31;15282206;19;20521;-63
2022/07/19 15:07:48;;;;;;;1.27;0.60;;;;;;;41.33;20.94;98481.13;15272750;19;20026;-64
2022/07/19 15:12:53;;;;;;;1.55;0.70;;;;;;;41.39;20.73;98476.81;15272842;19;20025;-63
2022/07/19 15:18:01;;;;;;;3.17;0.70;;;;;;;41.49;20.76;98474.63;15274156;19;20063;-64
2022/07/19 15:23:14;;;;;;;2.03;0.65;;;;;;;41.55;20.50;98473.16;15292692;19;20031;-64
2022/07/19 15:28:22;;;;;;;3.45;0.73;;;;;;;41.55;20.10;98467.50;15287809;19;20474;-62
2022/07/19 15:33:29;;;;;;;3.63;0.70;;;;;;;40.77;21.07;98471.59;15291712;19;20487;-64
2022/07/19 15:38:35;;;;;;;1.10;0.50;;;;;;;40.83;20.62;98472.97;15286104;19;20046;-63
2022/07/19 15:43:40;;;;;;;4.85;0.65;;;;;;;41.05;20.94;98467.03;15287031;19;20110;-64
2022/07/19 15:48:47;;;;;;;2.10;0.70;;;;;;;41.38;19.93;98463.06;15293809;19;20487;-64
2022/07/19 15:53:53;;;;;;;6.03;0.77;;;;;;;41.51;20.20;98449.63;15290117;19;20019;-64
2022/07/19 15:58:58;;;;;;;1.88;0.77;;;;;;;41.70;20.21;98463.81;15287194;19;20011;-64
2022/07/19 16:04:06;;;;;;;5.63;0.80;;;;;;;41.70;20.23;98457.34;15287147;19;20042;-64
2022/07/19 16:09:11;;;;;;;2.60;0.80;;;;;;;41.83;20.19;98456.03;15286631;19;20015;-64
2022/07/19 16:14:16;;;;;;;2.47;0.60;;;;;;;41.83;19.91;98443.88;15290397;19;20019;-64
2022/07/19 16:19:24;;;;;;;2.25;0.70;;;;;;;41.64;20.08;98437.00;15284280;19;20046;-64
2022/07/19 16:24:29;;;;;;;8.75;1.10;;;;;;;41.57;19.77;98431.22;15291402;19;20030;-63
2022/07/19 16:29:34;;;;;;;2.20;0.60;;;;;;;41.39;20.48;98425.91;15283874;19;20014;-65
2022/07/19 16:34:42;;;;;;;2.08;0.65;;;;;;;41.21;20.22;98424.69;15278900;19;20026;-65
2022/07/19 16:39:52;;;;;;;4.43;0.80;;;;;;;40.91;20.54;98427.94;15284211;19;20018;-64
2022/07/19 16:44:57;;;;;;;2.05;0.63;;;;;;;40.67;20.51;98424.13;15282176;19;20027;-64
2022/07/19 16:50:06;;;;;;;3.60;0.70;;;;;;;40.48;20.38;98422.81;15279948;19;20486;-64
2022/07/19 16:55:11;;;;;;;5.13;0.70;;;;;;;40.28;20.45;98418.22;15276300;19;20014;-65
2022/07/19 17:00:17;;;;;;;3.00;0.70;;;;;;;40.36;21.14;98425.69;15282456;19;20015;-65
2022/07/19 17:05:24;;;;;;;2.47;0.80;;;;;;;40.62;20.90;98422.38;15278040;19;20015;-63
2022/07/19 17:10:29;;;;;;;4.43;0.90;;;;;;;40.18;20.75;98423.19;15284023;19;20030;-65
2022/07/19 17:15:39;;;;;;;8.20;0.70;;;;;;;40.06;21.28;98423.22;15280261;19;20022;-65
2022/07/19 17:20:46;;;;;;;2.25;0.60;;;;;;;39.74;21.42;98428.72;15275015;19;20038;-64
2022/07/19 17:25:51;;;;;;;3.75;0.90;;;;;;;39.45;21.82;98430.66;15277636;19;20022;-66
2022/07/19 17:30:56;;;;;;;2.13;0.80;;;;;;;39.25;22.03;98424.75;15279983;19;20043;-65
2022/07/19 17:36:04;;;;;;;4.13;0.70;;;;;;;39.06;22.39;98424.53;15275306;19;20033;-65
2022/07/19 17:41:14;;;;;;;4.95;0.80;;;;;;;38.76;21.96;98416.25;15280941;19;20026;-65
2022/07/19 17:46:19;;;;;;;7.13;0.90;;;;;;;38.58;22.10;98419.28;15279708;19;20460;-66
2022/07/19 17:51:26;;;;;;;7.53;0.60;;;;;;;38.29;22.57;98421.06;15280674;19;20729;-65
2022/07/19 17:56:31;;;;;;;2.97;0.70;;;;;;;37.84;22.70;98408.56;15274544;19;20040;-65
2022/07/19 18:01:36;;;;;;;6.63;0.90;;;;;;;37.39;23.34;98403.59;15277246;19;20367;-62
2022/07/19 18:06:44;;;;;;;3.60;0.77;;;;;;;37.13;23.36;98416.59;15275715;19;20206;-65
2022/07/19 18:11:51;;;;;;;3.97;0.77;;;;;;;36.73;23.95;98413.31;15281182;19;20388;-65
2022/07/19 18:16:57;;;;;;;2.90;0.68;;;;;;;36.33;24.33;98408.78;15276625;19;20038;-62
2022/07/19 18:22:20;;;;;;;4.57;0.73;;;;;;;35.97;24.60;98415.59;15282225;19;20019;-63
2022/07/19 18:27:27;;;;;;;2.70;0.80;;;;;;;35.59;25.16;98415.03;15276095;19;20018;-64
2022/07/19 18:32:32;;;;;;;2.80;0.77;;;;;;;35.27;25.73;98419.09;15278527;19;20021;-65
2022/07/19 18:37:40;;;;;;;3.03;0.90;;;;;;;34.86;26.19;98418.28;15276213;19;20620;-61
2022/07/19 18:42:45;;;;;;;3.40;0.73;;;;;;;34.32;26.64;98413.50;15278639;19;20026;-64
2022/07/19 18:47:53;;;;;;;2.67;0.70;;;;;;;33.78;26.99;98416.22;15276885;19;20488;-64
2022/07/19 18:53:01;;;;;;;3.10;0.80;;;;;;;33.45;27.32;98411.66;15290051;19;20031;-63
2022/07/19 18:58:07;;;;;;;3.13;0.85;;;;;;;32.87;28.30;98419.50;15283563;19;20015;-65
2022/07/19 19:03:12;;;;;;;3.95;0.80;;;;;;;32.48;28.25;98419.97;15290241;19;20010;-65
2022/07/19 19:08:20;;;;;;;5.18;0.80;;;;;;;32.14;28.95;98419.13;15294143;19;20027;-65
2022/07/19 19:13:25;;;;;;;8.82;1.00;;;;;;;31.79;29.68;98432.50;15292419;19;20467;-65
2022/07/19 19:18:30;;;;;;;5.80;0.90;;;;;;;31.44;30.31;98431.84;15288499;19;20007;-62
2022/07/19 19:23:53;;;;;;;2.38;0.90;;;;;;;31.08;31.70;98429.50;15290542;19;20013;-62
2022/07/19 19:28:58;;;;;;;4.18;0.93;;;;;;;30.81;30.98;98431.72;15286922;19;20042;-63
2022/07/19 19:34:04;;;;;;;4.72;1.00;;;;;;;30.57;32.31;98435.34;15287879;19;20582;-63
2022/07/19 19:39:11;;;;;;;2.42;0.82;;;;;;;30.39;31.58;98436.00;15285493;19;20031;-63
2022/07/19 19:44:16;;;;;;;3.63;0.80;;;;;;;30.16;32.62;98437.63;15289510;19;20247;-62
2022/07/19 19:49:22;;;;;;;2.03;0.90;;;;;;;29.93;32.68;98443.56;15291586;19;20042;-62
2022/07/19 19:54:29;;;;;;;5.90;1.00;;;;;;;29.83;32.44;98438.91;15286744;19;20018;-62
2022/07/19 19:59:34;;;;;;;2.67;0.70;;;;;;;29.67;32.42;98442.94;15286055;19;20465;-63
2022/07/19 20:04:39;;;;;;;3.22;0.80;;;;;;;29.50;32.91;98441.34;15277597;19;20511;-62
2022/07/19 20:09:47;;;;;;;3.90;0.82;;;;;;;29.40;32.94;98438.63;15283352;19;20053;-62
2022/07/19 20:14:52;;;;;;;3.67;0.90;;;;;;;29.31;33.46;98437.53;15283054;19;20026;-62
2022/07/19 20:19:57;;;;;;;5.30;0.82;;;;;;;29.16;33.55;98430.13;15284338;19;20011;-62
2022/07/19 20:25:06;;;;;;;3.78;0.85;;;;;;;29.03;34.26;98428.75;15280568;19;20014;-62
2022/07/19 20:30:11;;;;;;;5.30;0.93;;;;;;;28.91;34.28;98426.31;15283688;19;20014;-62
2022/07/19 20:35:17;;;;;;;3.92;0.90;;;;;;;28.77;34.41;98436.34;15268545;19;20019;-63
2022/07/19 20:40:25;;;;;;;5.97;0.93;;;;;;;28.63;34.29;98444.38;15282873;19;20448;-62
2022/07/19 20:45:32;;;;;;;7.50;0.97;;;;;;;28.52;34.26;98444.38;15280035;19;20500;-62
2022/07/19 20:50:37;;;;;;;4.28;0.82;;;;;;;28.36;34.75;98449.09;15257771;19;20054;-62
2022/07/19 20:55:45;;;;;;;4.60;0.80;;;;;;;28.27;34.75;98451.63;15281241;19;20036;-61
2022/07/19 21:00:50;;;;;;;3.22;0.90;;;;;;;28.16;35.18;98455.50;15280278;19;20030;-63
2022/07/19 21:05:55;;;;;;;3.72;0.90;;;;;;;28.04;35.31;98452.13;15270045;19;20821;-63
2022/07/19 21:11:04;;;;;;;3.25;0.77;;;;;;;27.98;35.16;98460.41;15281436;19;20026;-62
2022/07/19 21:16:09;;;;;;;3.00;0.80;;;;;;;27.90;35.47;98462.88;15278630;19;20460;-62
2022/07/19 21:21:14;;;;;;;5.03;1.00;;;;;;;27.81;35.39;98451.53;15278413;19;20065;-62
2022/07/19 21:26:22;;;;;;;3.72;0.82;;;;;;;27.71;35.62;98460.66;15276810;19;20010;-62
2022/07/19 21:31:27;;;;;;;7.32;0.90;;;;;;;27.66;35.74;98446.78;15279736;19;20026;-62
2022/07/19 21:36:37;;;;;;;2.92;0.98;;;;;;;27.61;35.55;98452.31;15273174;19;20028;-64
2022/07/19 21:41:46;;;;;;;2.27;0.80;;;;;;;27.56;35.36;98464.22;15272579;19;20055;-64
2022/07/19 21:46:51;;;;;;;3.40;0.80;;;;;;;27.50;36.42;98459.75;15280921;19;20375;-61
2022/07/19 21:51:56;;;;;;;2.75;0.90;;;;;;;27.36;36.17;98465.75;15277853;19;20085;-62
2022/07/19 21:57:04;;;;;;;3.80;1.10;;;;;;;27.14;36.95;98456.81;15277491;19;20006;-64
2022/07/19 22:02:09;;;;;;;3.25;0.77;;;;;;;27.00;37.63;98457.31;15278620;19;20471;-63
2022/07/19 22:07:15;;;;;;;7.75;1.33;;;;;;;26.90;37.65;98468.31;15279612;19;20018;-64
2022/07/19 22:12:23;;;;;;;7.10;1.20;;;;;;;26.81;38.05;98467.16;15266796;19;20014;-63
2022/07/19 22:17:28;;;;;;;4.07;1.02;;;;;;;26.70;38.50;98469.81;15278551;19;20018;-62
2022/07/19 22:22:33;;;;;;;6.18;1.00;;;;;;;26.62;38.71;98470.31;15277070;19;20014;-62
2022/07/19 22:27:40;;;;;;;4.72;0.98;;;;;;;26.55;39.35;98480.75;15288961;19;20480;-62
2022/07/19 22:32:45;;;;;;;5.00;0.90;;;;;;;26.44;39.82;98488.16;15290579;19;20018;-62
2022/07/19 22:37:51;;;;;;;2.78;0.90;;;;;;;26.39;39.45;98488.09;15289219;19;20022;-62
2022/07/19 22:42:59;;;;;;;3.83;0.90;;;;;;;26.33;39.91;98489.97;15277120;19;20019;-62
2022/07/19 22:48:05;;;;;;;1.85;0.88;;;;;;;26.28;40.21;98499.06;15289436;19;20022;-62
2022/07/19 22:53:13;;;;;;;1.90;1.02;;;;;;;26.23;40.61;98492.66;15290830;19;20015;-62
2022/07/19 22:58:22;;;;;;;4.22;1.05;;;;;;;26.19;40.27;98499.78;15286919;19;20030;-62
2022/07/19 23:03:27;;;;;;;4.93;1.10;;;;;;;26.18;40.38;98498.13;14778520;19;10000575;-63
2022/07/19 23:08:33;;;;;;;3.45;1.10;;;;;;;26.14;41.24;98495.91;15288999;19;20035;-63
2022/07/19 23:13:41;;;;;;;4.70;1.23;;;;;;;26.09;40.90;98497.75;15280598;19;20484;-62
2022/07/19 23:18:46;;;;;;;2.63;1.20;;;;;;;26.08;41.05;98502.44;15283164;19;20024;-62
2022/07/19 23:23:52;;;;;;;5.05;1.02;;;;;;;26.10;41.68;98497.50;15285428;19;20015;-64
2022/07/19 23:29:00;;;;;;;4.43;1.10;;;;;;;26.12;41.19;98503.63;15286882;19;20014;-64
2022/07/19 23:34:07;;;;;;;1.57;0.90;;;;;;;26.06;41.58;98503.78;15287289;19;20010;-65
2022/07/19 23:39:12;;;;;;;4.00;1.10;;;;;;;25.98;42.25;98500.41;15280259;19;20017;-60
2022/07/19 23:44:20;;;;;;;3.53;1.10;;;;;;;25.91;42.33;98501.72;15287402;19;20033;-62
2022/07/19 23:49:25;;;;;;;4.00;1.17;;;;;;;25.85;42.70;98496.13;15277750;19;20022;-58
2022/07/19 23:54:31;;;;;;;3.80;1.10;;;;;;;25.80;42.98;98490.56;15286090;19;20022;-62